createdAt,value
2023-04-23T00:01:35.152Z,4.70
2023-04-23T00:04:03.046Z,4.73
2023-04-23T00:06:30.936Z,4.67
2023-04-23T00:09:00.954Z,4.90
2023-04-23T00:11:30.119Z,5.23
2023-04-23T00:13:57.804Z,4.60
2023-04-23T00:16:25.536Z,5.43
2023-04-23T00:18:52.962Z,5.43
2023-04-23T00:21:20.732Z,5.60
2023-04-23T00:23:48.081Z,5.13
2023-04-23T00:26:15.448Z,4.90
2023-04-23T00:28:44.196Z,5.60
2023-04-23T00:31:12.090Z,5.47
2023-04-23T00:33:39.500Z,5.67
2023-04-23T00:36:07.348Z,5.60
2023-04-23T00:38:34.748Z,5.60
2023-04-23T00:41:02.153Z,5.70
2023-04-23T00:43:29.542Z,5.63
2023-04-23T00:45:58.464Z,6.00
2023-04-23T00:48:26.670Z,5.50
2023-04-23T00:50:58.965Z,5.27
2023-04-23T00:53:26.430Z,5.53
2023-04-23T00:55:54.201Z,5.20
2023-04-23T00:58:21.965Z,4.97
2023-04-23T01:00:51.638Z,4.17
2023-04-23T01:03:21.786Z,4.40
2023-04-23T01:05:49.920Z,4.73
2023-04-23T01:08:18.366Z,4.60
2023-04-23T01:10:46.452Z,4.40
2023-04-23T01:13:14.626Z,4.37
2023-04-23T01:15:42.127Z,4.20
2023-04-23T01:18:09.508Z,4.33
2023-04-23T01:20:39.116Z,3.63
2023-04-23T01:23:08.131Z,3.60
2023-04-23T01:25:36.247Z,3.60
2023-04-23T01:28:06.379Z,4.00
2023-04-23T01:30:34.284Z,3.60
2023-04-23T01:33:02.648Z,3.90
2023-04-23T01:35:30.169Z,3.10
2023-04-23T01:37:57.993Z,2.80
2023-04-23T01:40:26.769Z,3.40
2023-04-23T01:42:54.244Z,2.90
2023-04-23T01:45:21.799Z,3.20
2023-04-23T01:47:49.470Z,2.80
2023-04-23T01:50:16.989Z,3.13
2023-04-23T01:52:46.251Z,2.40
2023-04-23T01:55:14.147Z,2.67
2023-04-23T01:57:42.876Z,2.60
2023-04-23T02:00:11.124Z,2.03
2023-04-23T02:02:42.616Z,2.30
2023-04-23T02:05:12.108Z,2.27
2023-04-23T02:07:39.627Z,2.50
2023-04-23T02:10:07.896Z,2.43
2023-04-23T02:12:35.387Z,2.20
2023-04-23T02:15:04.396Z,2.40
2023-04-23T02:17:31.837Z,2.37
2023-04-23T02:19:59.274Z,2.40
2023-04-23T02:22:26.733Z,2.30
2023-04-23T02:24:54.152Z,2.40
2023-04-23T02:27:22.033Z,2.00
2023-04-23T02:29:49.565Z,2.03
2023-04-23T02:32:18.445Z,2.10
2023-04-23T02:34:46.214Z,1.90
2023-04-23T02:37:13.598Z,1.77
2023-04-23T02:39:41.013Z,1.87
2023-04-23T02:42:10.025Z,2.00
2023-04-23T02:44:37.421Z,2.40
2023-04-23T02:47:05.002Z,2.00
2023-04-23T02:49:33.834Z,2.07
2023-04-23T02:52:01.248Z,2.50
2023-04-23T02:54:28.615Z,1.53
2023-04-23T02:56:57.293Z,1.80
2023-04-23T02:59:24.688Z,1.67
2023-04-23T03:01:52.477Z,1.83
2023-04-23T03:04:20.327Z,2.00
2023-04-23T03:06:49.218Z,1.60
2023-04-23T03:09:16.630Z,1.70
2023-04-23T03:11:44.131Z,1.60
2023-04-23T03:14:13.626Z,1.50
2023-04-23T03:16:41.200Z,1.70
2023-04-23T03:19:08.763Z,1.83
2023-04-23T03:21:36.494Z,1.60
2023-04-23T03:24:05.629Z,1.83
2023-04-23T03:26:34.569Z,1.80
2023-04-23T03:29:02.638Z,1.80
2023-04-23T03:31:30.167Z,1.90
2023-04-23T03:33:57.807Z,1.83
2023-04-23T03:36:32.257Z,1.97
2023-04-23T03:39:00.610Z,2.00
2023-04-23T03:41:35.102Z,1.93
2023-04-23T03:44:03.174Z,1.63
2023-04-23T03:46:40.722Z,1.63
2023-04-23T03:49:08.167Z,1.53
2023-04-23T03:51:35.954Z,1.67
2023-04-23T03:54:03.400Z,1.87
2023-04-23T03:56:43.753Z,1.90
2023-04-23T03:59:19.944Z,2.00
2023-04-23T04:01:49.529Z,2.03
2023-04-23T04:04:17.093Z,2.30
2023-04-23T04:06:44.690Z,2.20
2023-04-23T04:09:12.080Z,2.20
2023-04-23T04:11:39.455Z,2.33
2023-04-23T04:14:08.155Z,2.17
2023-04-23T04:16:35.593Z,2.30
2023-04-23T04:19:04.037Z,2.23
2023-04-23T04:21:32.047Z,2.23
2023-04-23T04:24:01.550Z,2.47
2023-04-23T04:26:29.574Z,2.20
2023-04-23T04:28:58.260Z,2.43
2023-04-23T04:31:28.221Z,2.50
2023-04-23T04:33:56.125Z,2.10
2023-04-23T04:36:25.083Z,2.13
2023-04-23T04:38:53.669Z,2.33
2023-04-23T04:41:21.688Z,2.07
2023-04-23T04:43:49.260Z,2.20
2023-04-23T04:46:19.850Z,2.23
2023-04-23T04:48:48.675Z,2.50
2023-04-23T04:51:16.405Z,2.17
2023-04-23T04:53:43.757Z,2.27
2023-04-23T04:56:11.166Z,2.30
2023-04-23T04:58:38.584Z,2.03
2023-04-23T05:01:06.461Z,2.17
2023-04-23T05:03:34.113Z,2.07
2023-04-23T05:06:02.999Z,2.50
2023-04-23T05:08:30.410Z,2.40
2023-04-23T05:10:57.783Z,2.20
2023-04-23T05:13:25.155Z,2.40
2023-04-23T05:15:52.555Z,2.40
2023-04-23T05:18:20.490Z,2.90
2023-04-23T05:20:47.927Z,2.40
2023-04-23T05:23:16.622Z,2.90
2023-04-23T05:25:44.053Z,2.50
2023-04-23T05:28:11.452Z,3.00
2023-04-23T05:30:39.381Z,2.63
2023-04-23T05:33:06.885Z,2.60
2023-04-23T05:35:34.331Z,3.30
2023-04-23T05:38:02.643Z,3.20
2023-04-23T05:40:31.383Z,2.87
2023-04-23T05:42:59.041Z,3.70
2023-04-23T05:45:26.732Z,3.30
2023-04-23T05:47:54.261Z,4.43
2023-04-23T05:50:21.746Z,3.90
2023-04-23T05:52:49.108Z,3.03
2023-04-23T05:55:16.617Z,3.20
2023-04-23T05:57:45.392Z,3.27
2023-04-23T06:00:13.352Z,3.43
2023-04-23T06:02:41.341Z,3.50
2023-04-23T06:05:09.479Z,3.30
2023-04-23T06:07:37.039Z,3.30
2023-04-23T06:10:05.374Z,2.97
2023-04-23T06:12:33.006Z,3.30
2023-04-23T06:15:01.762Z,2.90
2023-04-23T06:17:29.147Z,2.57
2023-04-23T06:19:56.519Z,2.50
2023-04-23T06:22:23.884Z,2.60
2023-04-23T06:24:51.564Z,2.20
2023-04-23T06:27:18.945Z,2.60
2023-04-23T06:29:50.040Z,2.40
2023-04-23T06:32:20.540Z,2.80
2023-04-23T06:35:00.395Z,2.70
2023-04-23T06:37:30.700Z,2.50
2023-04-23T06:39:58.784Z,2.40
2023-04-23T06:42:26.182Z,2.07
2023-04-23T06:45:22.818Z,2.03
2023-04-23T06:47:51.643Z,2.50
2023-04-23T06:50:19.179Z,2.30
2023-04-23T06:52:46.562Z,2.70
2023-04-23T06:55:13.918Z,2.27
2023-04-23T06:57:41.343Z,2.77
2023-04-23T07:00:10.736Z,2.67
2023-04-23T07:02:40.413Z,2.50
2023-04-23T07:05:10.274Z,2.50
2023-04-23T07:07:38.321Z,2.27
2023-04-23T07:10:06.957Z,2.27
2023-04-23T07:12:34.338Z,2.23
2023-04-23T07:15:01.708Z,2.23
2023-04-23T07:17:29.203Z,2.60
2023-04-23T07:19:56.638Z,2.43
2023-04-23T07:22:26.425Z,2.30
2023-04-23T07:24:54.258Z,2.30
2023-04-23T07:27:21.618Z,2.33
2023-04-23T07:29:49.022Z,2.20
2023-04-23T07:32:16.545Z,2.47
2023-04-23T07:34:44.464Z,2.60
2023-04-23T07:37:11.950Z,2.57
2023-04-23T07:39:43.319Z,2.63
2023-04-23T07:42:11.482Z,2.60
2023-04-23T07:44:38.829Z,3.03
2023-04-23T07:47:06.402Z,2.87
2023-04-23T07:49:33.802Z,2.97
2023-04-23T07:52:01.588Z,3.13
2023-04-23T07:54:28.948Z,3.40
2023-04-23T07:56:58.005Z,3.30
2023-04-23T07:59:25.576Z,3.07
2023-04-23T08:01:52.990Z,3.43
2023-04-23T08:04:20.817Z,3.20
2023-04-23T08:06:48.499Z,3.40
2023-04-23T08:09:15.818Z,3.53
2023-04-23T08:11:43.216Z,3.37
2023-04-23T08:14:12.187Z,3.77
2023-04-23T08:16:39.608Z,3.40
2023-04-23T08:19:07.048Z,3.53
2023-04-23T08:21:36.147Z,3.40
2023-04-23T08:24:04.244Z,3.70
2023-04-23T08:26:31.921Z,3.57
2023-04-23T08:29:00.532Z,3.30
2023-04-23T08:31:29.463Z,3.20
2023-04-23T08:33:57.026Z,3.10
2023-04-23T08:36:24.536Z,3.10
2023-04-23T08:38:51.868Z,2.70
2023-04-23T08:41:21.131Z,2.80
2023-04-23T08:43:52.536Z,3.00
2023-04-23T08:46:20.390Z,2.90
2023-04-23T08:48:52.625Z,3.17
2023-04-23T08:51:22.334Z,3.27
2023-04-23T08:53:52.227Z,3.30
2023-04-23T08:56:20.737Z,2.80
2023-04-23T08:58:48.172Z,2.50
2023-04-23T09:01:15.969Z,2.93
2023-04-23T09:03:43.646Z,2.70
2023-04-23T09:06:12.861Z,2.90
2023-04-23T09:08:40.340Z,3.00
2023-04-23T09:11:08.179Z,2.60
2023-04-23T09:13:35.992Z,2.80
2023-04-23T09:16:03.454Z,2.77
2023-04-23T09:18:30.932Z,3.03
2023-04-23T09:20:58.451Z,2.80
2023-04-23T09:23:27.163Z,3.20
2023-04-23T09:25:54.547Z,2.70
2023-04-23T09:28:21.938Z,2.93
2023-04-23T09:30:49.797Z,2.80
2023-04-23T09:33:17.707Z,2.83
2023-04-23T09:35:47.931Z,2.67
2023-04-23T09:38:15.437Z,3.30
2023-04-23T09:40:44.186Z,2.67
2023-04-23T09:43:11.600Z,2.90
2023-04-23T09:45:48.242Z,2.47
2023-04-23T09:48:16.723Z,2.83
2023-04-23T09:50:44.098Z,2.97
2023-04-23T09:53:11.509Z,2.70
2023-04-23T09:55:39.820Z,3.00
2023-04-23T09:58:12.434Z,3.30
2023-04-23T10:00:40.620Z,3.00
2023-04-23T10:03:09.456Z,2.57
2023-04-23T10:05:56.319Z,3.33
2023-04-23T10:08:26.921Z,3.00
2023-04-23T10:11:02.553Z,2.77
2023-04-23T10:13:35.554Z,3.20
2023-04-23T10:16:18.232Z,2.77
2023-04-23T10:18:50.275Z,2.33
2023-04-23T10:21:18.390Z,2.97
2023-04-23T10:23:46.914Z,2.50
2023-04-23T10:26:15.829Z,2.40
2023-04-23T10:28:47.871Z,3.00
2023-04-23T10:31:15.861Z,2.60
2023-04-23T10:33:55.921Z,2.40
2023-04-23T10:36:27.599Z,2.50
2023-04-23T10:38:58.875Z,2.90
2023-04-23T10:41:28.746Z,2.30
2023-04-23T10:43:58.381Z,2.67
2023-04-23T10:46:29.098Z,2.53
2023-04-23T10:49:13.707Z,2.73
2023-04-23T10:54:16.048Z,2.60
2023-04-23T10:56:43.884Z,2.50
2023-04-23T10:59:20.991Z,2.97
2023-04-23T11:01:49.408Z,2.33
2023-04-23T11:04:23.899Z,2.40
2023-04-23T11:06:53.074Z,2.60
2023-04-23T11:09:30.480Z,2.40
2023-04-23T11:11:58.905Z,2.60
2023-04-23T11:14:37.600Z,2.90
2023-04-23T11:17:05.456Z,2.20
2023-04-23T11:19:35.755Z,2.30
2023-04-23T11:22:04.390Z,2.27
2023-04-23T11:24:32.867Z,2.47
2023-04-23T11:27:01.609Z,2.10
2023-04-23T11:29:29.493Z,2.30
2023-04-23T11:32:03.093Z,2.27
2023-04-23T11:34:33.841Z,2.50
2023-04-23T11:37:02.079Z,2.50
2023-04-23T11:39:29.476Z,2.17
2023-04-23T11:41:57.693Z,2.37
2023-04-23T11:44:25.302Z,2.30
2023-04-23T11:46:52.716Z,2.37
2023-04-23T11:49:21.696Z,2.33
2023-04-23T11:51:49.455Z,2.60
2023-04-23T11:54:16.868Z,2.57
2023-04-23T11:56:44.752Z,2.40
2023-04-23T11:59:12.155Z,2.60
2023-04-23T12:01:43.851Z,2.50
2023-04-23T12:04:13.083Z,2.63
2023-04-23T12:06:43.269Z,2.07
2023-04-23T12:09:11.554Z,2.20
2023-04-23T12:11:39.168Z,2.20
2023-04-23T12:14:08.353Z,2.87
2023-04-23T12:16:37.077Z,2.30
2023-04-23T12:19:04.691Z,2.30
2023-04-23T12:21:33.008Z,2.60
2023-04-23T12:24:04.642Z,2.57
2023-04-23T12:26:32.151Z,2.33
2023-04-23T12:29:00.448Z,2.40
2023-04-23T12:31:29.306Z,2.30
2023-04-23T12:34:00.324Z,2.30
2023-04-23T12:36:28.528Z,2.20
2023-04-23T12:38:55.990Z,2.40
2023-04-23T12:41:24.751Z,2.20
2023-04-23T12:43:52.149Z,2.00
2023-04-23T12:46:19.542Z,1.93
2023-04-23T12:48:46.939Z,2.10
2023-04-23T12:51:14.344Z,2.40
2023-04-23T12:53:41.711Z,2.10
2023-04-23T12:56:09.129Z,2.13
2023-04-23T12:58:37.883Z,2.50
2023-04-23T13:01:05.361Z,2.00
2023-04-23T13:03:33.084Z,2.10
2023-04-23T13:06:00.532Z,2.30
2023-04-23T13:08:27.897Z,1.80
2023-04-23T13:10:55.291Z,2.10
2023-04-23T13:13:22.690Z,2.30
2023-04-23T13:15:51.448Z,2.00
2023-04-23T13:18:18.792Z,1.77
2023-04-23T13:20:46.280Z,2.23
2023-04-23T13:23:13.662Z,2.03
2023-04-23T13:25:41.312Z,1.83
2023-04-23T13:28:08.724Z,1.90
2023-04-23T13:30:36.092Z,2.07
2023-04-23T13:33:05.052Z,1.83
2023-04-23T13:35:32.500Z,1.90
2023-04-23T13:37:59.869Z,2.00
2023-04-23T13:40:27.224Z,1.97
2023-04-23T13:42:54.913Z,1.87
2023-04-23T13:45:22.300Z,2.00
2023-04-23T13:47:49.673Z,2.23
2023-04-23T13:50:18.437Z,2.40
2023-04-23T13:52:45.798Z,2.00
2023-04-23T13:55:13.280Z,1.70
2023-04-23T13:57:40.663Z,2.40
2023-04-23T14:00:08.622Z,2.10
2023-04-23T14:02:36.126Z,2.20
2023-04-23T14:05:06.340Z,2.10
2023-04-23T14:07:35.146Z,2.60
2023-04-23T14:10:02.669Z,2.73
2023-04-23T14:12:30.061Z,3.13
2023-04-23T14:14:57.460Z,3.27
2023-04-23T14:17:24.847Z,3.20
2023-04-23T14:19:52.213Z,2.80
2023-04-23T14:22:19.614Z,2.37
2023-04-23T14:24:52.089Z,2.77
2023-04-23T14:27:19.515Z,2.90
2023-04-23T14:29:47.569Z,3.50
2023-04-23T14:32:15.150Z,3.33
2023-04-23T14:34:42.532Z,3.23
2023-04-23T14:37:11.176Z,3.50
2023-04-23T14:39:38.624Z,2.90
2023-04-23T14:42:07.496Z,2.77
2023-04-23T14:44:34.847Z,2.50
2023-04-23T14:47:02.685Z,2.50
2023-04-23T14:49:30.226Z,2.80
2023-04-23T14:51:58.058Z,2.60
2023-04-23T14:54:25.760Z,2.97
2023-04-23T14:56:53.314Z,3.13
2023-04-23T14:59:22.400Z,3.30
2023-04-23T15:01:49.870Z,3.23
2023-04-23T15:04:17.581Z,3.20
2023-04-23T15:06:45.120Z,2.80
2023-04-23T15:09:12.540Z,3.00
2023-04-23T15:11:42.058Z,3.30
2023-04-23T15:14:19.407Z,2.57
2023-04-23T15:16:49.794Z,3.10
2023-04-23T15:19:18.773Z,2.47
2023-04-23T15:21:46.545Z,3.37
2023-04-23T15:24:14.094Z,2.50
2023-04-23T15:26:41.725Z,2.00
2023-04-23T15:29:09.955Z,2.20
2023-04-23T15:31:37.484Z,2.27
2023-04-23T15:34:08.331Z,2.73
2023-04-23T15:36:37.275Z,2.20
2023-04-23T15:39:04.871Z,2.30
2023-04-23T15:41:32.312Z,2.27
2023-04-23T15:44:00.261Z,2.00
2023-04-23T15:46:27.944Z,2.20
2023-04-23T15:48:55.336Z,2.10
2023-04-23T15:51:24.121Z,2.10
2023-04-23T15:53:51.880Z,2.20
2023-04-23T15:56:19.267Z,2.20
2023-04-23T15:58:46.633Z,2.23
2023-04-23T16:01:14.066Z,2.40
2023-04-23T16:03:47.892Z,2.63
2023-04-23T16:06:21.215Z,2.00
2023-04-23T16:08:49.968Z,2.30
2023-04-23T16:11:17.344Z,2.40
2023-04-23T16:13:44.750Z,2.60
2023-04-23T16:16:12.131Z,1.93
2023-04-23T16:18:39.610Z,2.30
2023-04-23T16:21:07.050Z,2.40
2023-04-23T16:23:34.440Z,2.10
2023-04-23T16:26:08.489Z,2.07
2023-04-23T16:28:36.025Z,2.20
2023-04-23T16:31:03.672Z,2.50
2023-04-23T16:33:31.205Z,3.23
2023-04-23T16:35:59.462Z,2.30
2023-04-23T16:38:26.926Z,2.40
2023-04-23T16:40:54.382Z,2.50
2023-04-23T16:43:23.157Z,2.20
2023-04-23T16:45:50.523Z,2.07
2023-04-23T16:48:19.764Z,2.77
2023-04-23T16:50:47.185Z,2.77
2023-04-23T16:53:14.570Z,2.27
2023-04-23T16:55:42.069Z,2.30
2023-04-23T16:58:09.983Z,2.53
2023-04-23T17:00:38.686Z,2.67
2023-04-23T17:03:06.243Z,2.77
2023-04-23T17:05:34.869Z,2.60
2023-04-23T17:08:02.542Z,2.40
2023-04-23T17:10:29.890Z,2.10
2023-04-23T17:12:57.295Z,1.97
2023-04-23T17:15:24.664Z,2.00
2023-04-23T17:17:53.667Z,1.67
2023-04-23T17:20:21.934Z,1.90
2023-04-23T17:22:49.355Z,2.00
2023-04-23T17:25:16.808Z,2.00
2023-04-23T17:27:44.333Z,1.93
2023-04-23T17:30:12.222Z,2.07
2023-04-23T17:32:39.891Z,2.07
2023-04-23T17:35:10.795Z,2.00
2023-04-23T17:37:38.968Z,2.00
2023-04-23T17:40:06.996Z,1.67
2023-04-23T17:42:34.400Z,2.00
2023-04-23T17:45:01.886Z,1.43
2023-04-23T17:47:29.377Z,1.90
2023-04-23T17:49:56.723Z,2.13
2023-04-23T17:52:25.526Z,1.77
2023-04-23T17:54:52.911Z,1.87
2023-04-23T17:57:20.344Z,2.03
2023-04-23T17:59:47.753Z,1.90
2023-04-23T18:02:15.989Z,2.03
2023-04-23T18:04:43.378Z,2.30
2023-04-23T18:07:11.220Z,1.60
2023-04-23T18:09:40.026Z,1.60
2023-04-23T18:12:07.444Z,1.50
2023-04-23T18:14:34.857Z,1.80
2023-04-23T18:17:02.320Z,1.80
2023-04-23T18:19:30.877Z,2.17
2023-04-23T18:22:02.485Z,1.93
2023-04-23T18:24:29.867Z,1.80
2023-04-23T18:26:58.906Z,2.17
2023-04-23T18:29:29.296Z,1.77
2023-04-23T18:31:56.830Z,1.90
2023-04-23T18:34:24.590Z,1.87
2023-04-23T18:36:55.307Z,1.70
2023-04-23T18:39:22.889Z,2.00
2023-04-23T18:41:50.671Z,1.50
2023-04-23T18:44:19.747Z,1.70
2023-04-23T18:46:47.486Z,1.97
2023-04-23T18:49:37.649Z,2.23
2023-04-23T18:52:05.185Z,3.30
2023-04-23T18:54:32.684Z,3.07
2023-04-23T18:57:00.075Z,2.43
2023-04-23T18:59:29.343Z,2.97
2023-04-23T19:01:57.019Z,2.20
2023-04-23T19:04:24.487Z,2.30
2023-04-23T19:06:52.033Z,2.03
2023-04-23T19:09:19.368Z,2.10
2023-04-23T19:11:46.757Z,1.90
2023-04-23T19:14:15.605Z,1.90
2023-04-23T19:16:44.298Z,2.00
2023-04-23T19:19:11.682Z,2.00
2023-04-23T19:21:39.245Z,2.03
2023-04-23T19:24:06.817Z,2.00
2023-04-23T19:26:34.228Z,2.00
2023-04-23T19:29:02.697Z,1.77
2023-04-23T19:31:31.040Z,1.70
2023-04-23T19:33:59.791Z,1.47
2023-04-23T19:36:27.307Z,1.60
2023-04-23T19:38:54.722Z,1.57
2023-04-23T19:41:22.273Z,1.20
2023-04-23T19:43:49.652Z,1.23
2023-04-23T19:46:17.090Z,1.20
2023-04-23T19:48:44.475Z,1.20
2023-04-23T19:51:13.212Z,1.10
2023-04-23T19:53:40.557Z,0.97
2023-04-23T19:56:12.726Z,1.00
2023-04-23T19:58:40.416Z,1.00
2023-04-23T20:01:08.649Z,1.10
2023-04-23T20:03:36.295Z,1.00
2023-04-23T20:06:03.835Z,1.10
2023-04-23T20:08:41.915Z,1.00
2023-04-23T20:11:10.242Z,1.10
2023-04-23T20:13:37.671Z,1.20
2023-04-23T20:16:05.075Z,1.20
2023-04-23T20:18:35.421Z,0.83
2023-04-23T20:21:02.863Z,1.10
2023-04-23T20:23:30.260Z,1.20
2023-04-23T20:25:59.061Z,1.10
2023-04-23T20:28:26.424Z,0.93
2023-04-23T20:30:53.778Z,1.30
2023-04-23T20:33:21.212Z,1.10
2023-04-23T20:35:48.612Z,1.10
2023-04-23T20:38:18.971Z,1.10
2023-04-23T20:40:46.626Z,1.20
2023-04-23T20:43:15.364Z,1.10
2023-04-23T20:45:43.080Z,1.10
2023-04-23T20:48:10.645Z,1.23
2023-04-23T20:50:38.196Z,1.23
2023-04-23T20:53:05.622Z,1.13
2023-04-23T20:55:33.068Z,1.40
2023-04-23T20:58:00.624Z,1.10
2023-04-23T21:00:29.406Z,1.20
2023-04-23T21:02:56.904Z,1.20
2023-04-23T21:05:24.454Z,1.60
2023-04-23T21:07:51.831Z,1.20
2023-04-23T21:10:19.316Z,1.10
2023-04-23T21:12:46.710Z,1.50
2023-04-23T21:15:15.873Z,1.30
2023-04-23T21:17:44.710Z,1.13
2023-04-23T21:20:12.321Z,1.37
2023-04-23T21:22:39.747Z,1.20
2023-04-23T21:25:07.750Z,1.40
2023-04-23T21:27:35.414Z,1.60
2023-04-23T21:30:06.397Z,1.30
2023-04-23T21:32:33.891Z,1.30
2023-04-23T21:35:02.643Z,1.27
2023-04-23T21:37:30.599Z,1.13
2023-04-23T21:39:58.032Z,1.43
2023-04-23T21:42:25.391Z,1.17
2023-04-23T21:44:52.761Z,1.20
2023-04-23T21:47:20.093Z,1.50
2023-04-23T21:49:48.915Z,1.13
2023-04-23T21:52:17.809Z,1.33
2023-04-23T21:54:45.211Z,1.07
2023-04-23T21:57:12.809Z,1.20
2023-04-23T21:59:42.315Z,1.20
2023-04-23T22:02:10.021Z,1.07
2023-04-23T22:04:37.518Z,0.97
2023-04-23T22:07:06.987Z,1.00
2023-04-23T22:09:35.764Z,0.90
2023-04-23T22:12:03.602Z,1.40
2023-04-23T22:14:31.023Z,1.13
2023-04-23T22:16:59.455Z,1.00
2023-04-23T22:19:26.911Z,1.00
2023-04-23T22:21:54.570Z,0.90
2023-04-23T22:24:21.912Z,1.00
2023-04-23T22:26:50.756Z,1.03
2023-04-23T22:29:18.221Z,0.90
2023-04-23T22:31:45.634Z,1.00
2023-04-23T22:34:13.053Z,1.10
2023-04-23T22:36:42.986Z,1.00
2023-04-23T22:39:12.414Z,0.93
2023-04-23T22:41:40.200Z,0.90
2023-04-23T22:44:09.281Z,1.10
2023-04-23T22:46:37.173Z,1.00
2023-04-23T22:49:07.795Z,1.73
2023-04-23T22:51:35.897Z,0.93
2023-04-23T22:54:03.304Z,1.13
2023-04-23T22:56:30.747Z,1.10
2023-04-23T22:58:58.139Z,1.30
2023-04-23T23:01:26.902Z,1.10
2023-04-23T23:03:54.345Z,1.20
2023-04-23T23:06:21.990Z,1.40
2023-04-23T23:08:49.488Z,0.93
2023-04-23T23:11:16.881Z,1.10
2023-04-23T23:13:45.252Z,1.20
2023-04-23T23:16:12.714Z,1.13
2023-04-23T23:18:41.488Z,1.10
2023-04-23T23:21:08.844Z,1.10
2023-04-23T23:23:36.375Z,1.20
2023-04-23T23:26:03.799Z,1.30
2023-04-23T23:28:31.342Z,1.00
2023-04-23T23:30:59.309Z,1.30
2023-04-23T23:33:27.030Z,1.20
2023-04-23T23:35:55.898Z,1.30
2023-04-23T23:38:23.417Z,1.23
2023-04-23T23:40:50.829Z,1.03
2023-04-23T23:43:18.208Z,1.20
2023-04-23T23:45:45.772Z,1.20
2023-04-23T23:48:13.242Z,1.40
2023-04-23T23:50:40.930Z,0.97
2023-04-23T23:53:09.699Z,1.30
2023-04-23T23:55:38.414Z,1.20
2023-04-23T23:58:06.129Z,1.10
